sensor_id;sensor_type;location;lat;lon;timestamp;pressure;altitude;pressure_sealevel;temperature;humidity
53715;BME280;39608;55.630;37.864;2023-02-15T00:02:45;99701.44;;;-0.79;62.58
53715;BME280;39608;55.630;37.864;2023-02-15T00:07:47;99727.84;;;-0.77;62.38
53715;BME280;39608;55.630;37.864;2023-02-15T00:12:50;99710.84;;;-0.76;62.68
53715;BME280;39608;55.630;37.864;2023-02-15T00:17:52;99712.47;;;-0.75;62.93
53715;BME280;39608;55.630;37.864;2023-02-15T00:22:54;99716.97;;;-0.76;63.18
53715;BME280;39608;55.630;37.864;2023-02-15T00:27:59;99724.34;;;-0.71;62.53
53715;BME280;39608;55.630;37.864;2023-02-15T00:33:01;99714.09;;;-0.74;62.66
53715;BME280;39608;55.630;37.864;2023-02-15T00:38:03;99732.16;;;-0.76;63.05
53715;BME280;39608;55.630;37.864;2023-02-15T00:43:07;99712.09;;;-0.79;62.61
53715;BME280;39608;55.630;37.864;2023-02-15T00:48:09;99735.25;;;-0.79;62.68
53715;BME280;39608;55.630;37.864;2023-02-15T00:53:11;99730.50;;;-0.77;62.69
53715;BME280;39608;55.630;37.864;2023-02-15T00:58:14;99736.88;;;-0.78;63.02
53715;BME280;39608;55.630;37.864;2023-02-15T01:03:18;99721.72;;;-0.78;63.07
53715;BME280;39608;55.630;37.864;2023-02-15T01:08:21;99733.38;;;-0.79;63.19
53715;BME280;39608;55.630;37.864;2023-02-15T01:13:25;99727.25;;;-0.79;62.71
53715;BME280;39608;55.630;37.864;2023-02-15T01:18:27;99734.41;;;-0.80;62.63
53715;BME280;39608;55.630;37.864;2023-02-15T01:23:29;99743.44;;;-0.81;62.80
53715;BME280;39608;55.630;37.864;2023-02-15T01:28:32;99724.88;;;-0.94;62.89
53715;BME280;39608;55.630;37.864;2023-02-15T01:33:35;99735.06;;;-0.84;62.72
53715;BME280;39608;55.630;37.864;2023-02-15T01:38:37;99745.53;;;-0.90;62.77
53715;BME280;39608;55.630;37.864;2023-02-15T01:43:43;99726.34;;;-0.98;63.27
53715;BME280;39608;55.630;37.864;2023-02-15T01:48:47;99720.06;;;-1.11;63.25
53715;BME280;39608;55.630;37.864;2023-02-15T01:53:51;99764.00;;;-0.95;62.91
53715;BME280;39608;55.630;37.864;2023-02-15T01:59:00;99751.13;;;-0.98;63.46
53715;BME280;39608;55.630;37.864;2023-02-15T02:04:09;99757.03;;;-0.96;62.97
53715;BME280;39608;55.630;37.864;2023-02-15T02:09:15;99752.59;;;-1.09;63.11
53715;BME280;39608;55.630;37.864;2023-02-15T02:14:18;99756.47;;;-1.05;63.16
53715;BME280;39608;55.630;37.864;2023-02-15T02:25:03;99755.81;;;-0.93;62.62
53715;BME280;39608;55.630;37.864;2023-02-15T02:30:25;99763.63;;;-1.05;62.63
53715;BME280;39608;55.630;37.864;2023-02-15T02:35:37;99762.84;;;-1.12;63.04
53715;BME280;39608;55.630;37.864;2023-02-15T02:40:50;99771.81;;;-1.00;63.14
53715;BME280;39608;55.630;37.864;2023-02-15T02:45:58;99787.38;;;-1.04;62.34
53715;BME280;39608;55.630;37.864;2023-02-15T02:51:05;99785.75;;;-1.05;62.75
53715;BME280;39608;55.630;37.864;2023-02-15T02:56:18;99787.00;;;-1.07;62.25
53715;BME280;39608;55.630;37.864;2023-02-15T03:01:26;99781.06;;;-1.09;62.35
53715;BME280;39608;55.630;37.864;2023-02-15T03:06:40;99783.69;;;-1.02;62.01
53715;BME280;39608;55.630;37.864;2023-02-15T03:11:45;99793.13;;;-1.07;61.92
53715;BME280;39608;55.630;37.864;2023-02-15T03:16:50;99795.56;;;-1.05;61.50
53715;BME280;39608;55.630;37.864;2023-02-15T03:21:56;99773.94;;;-1.22;62.09
53715;BME280;39608;55.630;37.864;2023-02-15T03:27:07;99806.72;;;-1.22;61.59
53715;BME280;39608;55.630;37.864;2023-02-15T03:32:14;99798.28;;;-1.12;62.06
53715;BME280;39608;55.630;37.864;2023-02-15T03:37:23;99810.16;;;-1.14;61.62
53715;BME280;39608;55.630;37.864;2023-02-15T03:42:30;99790.13;;;-1.24;61.69
53715;BME280;39608;55.630;37.864;2023-02-15T03:47:36;99799.09;;;-1.18;61.92
53715;BME280;39608;55.630;37.864;2023-02-15T03:52:42;99805.66;;;-1.21;61.68
53715;BME280;39608;55.630;37.864;2023-02-15T03:57:44;99808.97;;;-1.25;62.04
53715;BME280;39608;55.630;37.864;2023-02-15T04:03:11;99817.56;;;-1.23;61.47
53715;BME280;39608;55.630;37.864;2023-02-15T04:08:15;99806.16;;;-1.37;61.78
53715;BME280;39608;55.630;37.864;2023-02-15T04:13:18;99808.19;;;-1.39;62.01
53715;BME280;39608;55.630;37.864;2023-02-15T04:18:20;99818.44;;;-1.43;61.79
53715;BME280;39608;55.630;37.864;2023-02-15T04:23:23;99828.88;;;-1.41;61.25
53715;BME280;39608;55.630;37.864;2023-02-15T04:28:43;99828.66;;;-1.46;61.55
53715;BME280;39608;55.630;37.864;2023-02-15T04:33:45;99827.66;;;-1.45;61.73
53715;BME280;39608;55.630;37.864;2023-02-15T04:38:49;99817.81;;;-1.51;61.66
53715;BME280;39608;55.630;37.864;2023-02-15T04:43:51;99821.75;;;-1.61;61.50
53715;BME280;39608;55.630;37.864;2023-02-15T04:48:54;99829.09;;;-1.63;61.61
53715;BME280;39608;55.630;37.864;2023-02-15T04:53:58;99820.91;;;-1.61;61.33
53715;BME280;39608;55.630;37.864;2023-02-15T04:59:00;99827.44;;;-1.64;61.11
53715;BME280;39608;55.630;37.864;2023-02-15T05:04:02;99835.03;;;-1.61;61.29
53715;BME280;39608;55.630;37.864;2023-02-15T05:09:06;99830.09;;;-1.64;60.94
53715;BME280;39608;55.630;37.864;2023-02-15T05:14:08;99825.00;;;-1.65;61.29
53715;BME280;39608;55.630;37.864;2023-02-15T05:19:10;99839.53;;;-1.68;60.95
53715;BME280;39608;55.630;37.864;2023-02-15T05:24:14;99849.56;;;-1.63;61.06
53715;BME280;39608;55.630;37.864;2023-02-15T05:29:33;99863.44;;;-1.68;61.32
53715;BME280;39608;55.630;37.864;2023-02-15T05:34:35;99857.13;;;-1.67;61.54
53715;BME280;39608;55.630;37.864;2023-02-15T05:39:38;99850.56;;;-1.71;61.30
53715;BME280;39608;55.630;37.864;2023-02-15T05:44:40;99860.81;;;-1.75;61.49
53715;BME280;39608;55.630;37.864;2023-02-15T05:49:42;99867.16;;;-1.76;60.52
53715;BME280;39608;55.630;37.864;2023-02-15T05:54:45;99865.50;;;-1.77;61.02
53715;BME280;39608;55.630;37.864;2023-02-15T05:59:47;99864.69;;;-1.77;61.09
53715;BME280;39608;55.630;37.864;2023-02-15T06:04:49;99857.13;;;-1.80;60.87
53715;BME280;39608;55.630;37.864;2023-02-15T06:09:52;99867.56;;;-1.85;61.23
53715;BME280;39608;55.630;37.864;2023-02-15T06:14:54;99866.34;;;-1.90;60.80
53715;BME280;39608;55.630;37.864;2023-02-15T06:19:56;99877.56;;;-1.81;61.08
53715;BME280;39608;55.630;37.864;2023-02-15T06:25:00;99894.16;;;-1.79;60.80
53715;BME280;39608;55.630;37.864;2023-02-15T06:30:05;99894.34;;;-1.87;60.77
53715;BME280;39608;55.630;37.864;2023-02-15T06:35:07;99880.44;;;-1.89;60.88
53715;BME280;39608;55.630;37.864;2023-02-15T06:40:11;99873.50;;;-1.97;60.13
53715;BME280;39608;55.630;37.864;2023-02-15T06:45:14;99887.19;;;-2.00;60.73
53715;BME280;39608;55.630;37.864;2023-02-15T06:50:16;99892.69;;;-1.95;60.21
53715;BME280;39608;55.630;37.864;2023-02-15T06:55:19;99893.31;;;-1.99;60.99
53715;BME280;39608;55.630;37.864;2023-02-15T07:00:21;99906.41;;;-1.98;60.42
53715;BME280;39608;55.630;37.864;2023-02-15T07:05:25;99890.66;;;-1.93;60.71
53715;BME280;39608;55.630;37.864;2023-02-15T07:10:32;99889.22;;;-1.75;60.44
53715;BME280;39608;55.630;37.864;2023-02-15T07:15:34;99880.63;;;-1.91;60.49
53715;BME280;39608;55.630;37.864;2023-02-15T07:20:37;99904.59;;;-1.77;60.08
53715;BME280;39608;55.630;37.864;2023-02-15T07:25:40;99905.19;;;-1.75;59.89
53715;BME280;39608;55.630;37.864;2023-02-15T07:30:42;99906.00;;;-1.81;59.87
53715;BME280;39608;55.630;37.864;2023-02-15T07:35:48;99902.94;;;-1.65;60.26
53715;BME280;39608;55.630;37.864;2023-02-15T07:40:51;99891.50;;;-1.72;60.05
53715;BME280;39608;55.630;37.864;2023-02-15T07:45:59;99913.38;;;-1.70;60.23
53715;BME280;39608;55.630;37.864;2023-02-15T07:51:03;99912.34;;;-1.56;59.82
53715;BME280;39608;55.630;37.864;2023-02-15T07:56:09;99905.19;;;-1.62;59.57
53715;BME280;39608;55.630;37.864;2023-02-15T08:01:12;99924.03;;;-1.57;59.51
53715;BME280;39608;55.630;37.864;2023-02-15T08:06:14;99922.78;;;-1.47;59.76
53715;BME280;39608;55.630;37.864;2023-02-15T08:11:19;99939.53;;;-1.40;60.15
53715;BME280;39608;55.630;37.864;2023-02-15T08:16:32;99933.81;;;-1.50;59.56
53715;BME280;39608;55.630;37.864;2023-02-15T08:21:35;99930.75;;;-1.41;59.68
53715;BME280;39608;55.630;37.864;2023-02-15T08:26:39;99931.56;;;-1.20;59.37
53715;BME280;39608;55.630;37.864;2023-02-15T08:31:42;99938.50;;;-1.06;58.94
53715;BME280;39608;55.630;37.864;2023-02-15T08:36:44;99938.69;;;-1.07;59.34
53715;BME280;39608;55.630;37.864;2023-02-15T08:41:48;99956.13;;;-1.18;59.52
53715;BME280;39608;55.630;37.864;2023-02-15T08:46:51;99946.50;;;-1.32;59.60
53715;BME280;39608;55.630;37.864;2023-02-15T08:51:53;99968.00;;;-1.27;59.46
53715;BME280;39608;55.630;37.864;2023-02-15T08:56:56;99958.38;;;-1.22;59.99
53715;BME280;39608;55.630;37.864;2023-02-15T09:01:58;99955.50;;;-1.27;59.40
53715;BME280;39608;55.630;37.864;2023-02-15T09:07:00;99966.16;;;-1.27;59.40
53715;BME280;39608;55.630;37.864;2023-02-15T09:12:06;99969.41;;;-1.25;59.90
53715;BME280;39608;55.630;37.864;2023-02-15T09:17:11;99961.03;;;-1.22;59.77
53715;BME280;39608;55.630;37.864;2023-02-15T09:22:13;99960.38;;;-1.04;59.43
53715;BME280;39608;55.630;37.864;2023-02-15T09:27:16;99974.75;;;-0.98;58.90
53715;BME280;39608;55.630;37.864;2023-02-15T09:32:18;99966.75;;;-0.98;58.71
53715;BME280;39608;55.630;37.864;2023-02-15T09:37:20;99980.66;;;-0.89;59.09
53715;BME280;39608;55.630;37.864;2023-02-15T09:42:39;99985.75;;;-0.88;58.61
53715;BME280;39608;55.630;37.864;2023-02-15T09:47:56;99979.84;;;-1.03;58.84
53715;BME280;39608;55.630;37.864;2023-02-15T09:53:26;99996.41;;;-0.88;59.27
53715;BME280;39608;55.630;37.864;2023-02-15T09:58:40;99972.47;;;-0.94;58.83
53715;BME280;39608;55.630;37.864;2023-02-15T10:03:58;99998.03;;;-0.80;57.98
53715;BME280;39608;55.630;37.864;2023-02-15T10:09:13;99985.78;;;-1.01;58.86
53715;BME280;39608;55.630;37.864;2023-02-15T10:14:31;100007.28;;;-0.96;58.66
53715;BME280;39608;55.630;37.864;2023-02-15T10:19:43;100002.16;;;-0.97;57.43
53715;BME280;39608;55.630;37.864;2023-02-15T10:25:14;100007.88;;;-0.80;58.06
53715;BME280;39608;55.630;37.864;2023-02-15T10:30:31;100012.97;;;-0.59;57.26
53715;BME280;39608;55.630;37.864;2023-02-15T10:35:43;100001.69;;;-0.61;56.13
53715;BME280;39608;55.630;37.864;2023-02-15T10:40:59;100009.88;;;-0.62;56.56
53715;BME280;39608;55.630;37.864;2023-02-15T10:46:12;100028.09;;;-0.53;56.34
53715;BME280;39608;55.630;37.864;2023-02-15T10:51:25;100024.22;;;-0.63;56.73
53715;BME280;39608;55.630;37.864;2023-02-15T10:56:35;100037.94;;;-0.60;57.30
53715;BME280;39608;55.630;37.864;2023-02-15T11:01:43;100034.84;;;-0.43;57.59
53715;BME280;39608;55.630;37.864;2023-02-15T11:06:50;100046.75;;;-0.46;57.14
53715;BME280;39608;55.630;37.864;2023-02-15T11:11:56;100043.09;;;-0.72;56.95
53715;BME280;39608;55.630;37.864;2023-02-15T11:17:08;100053.75;;;-0.78;57.87
53715;BME280;39608;55.630;37.864;2023-02-15T11:22:12;100067.69;;;-0.83;58.12
53715;BME280;39608;55.630;37.864;2023-02-15T11:27:19;100053.56;;;-0.83;57.74
53715;BME280;39608;55.630;37.864;2023-02-15T11:32:26;100079.75;;;-0.87;58.09
53715;BME280;39608;55.630;37.864;2023-02-15T11:37:31;100065.00;;;-0.70;58.50
53715;BME280;39608;55.630;37.864;2023-02-15T11:42:35;100079.78;;;-0.80;56.88
53715;BME280;39608;55.630;37.864;2023-02-15T11:47:38;100083.25;;;-0.87;56.73
53715;BME280;39608;55.630;37.864;2023-02-15T11:52:41;100083.25;;;-0.80;56.73
53715;BME280;39608;55.630;37.864;2023-02-15T11:57:45;100087.34;;;-0.77;56.88
53715;BME280;39608;55.630;37.864;2023-02-15T12:02:53;100095.94;;;-0.82;57.04
53715;BME280;39608;55.630;37.864;2023-02-15T12:08:00;100093.06;;;-0.87;57.00
53715;BME280;39608;55.630;37.864;2023-02-15T12:13:12;100086.72;;;-0.93;55.84
53715;BME280;39608;55.630;37.864;2023-02-15T12:18:35;100101.69;;;-0.92;55.36
53715;BME280;39608;55.630;37.864;2023-02-15T12:23:42;100115.81;;;-0.91;55.64
53715;BME280;39608;55.630;37.864;2023-02-15T12:28:50;100122.16;;;-0.86;55.25
53715;BME280;39608;55.630;37.864;2023-02-15T12:33:57;100120.75;;;-0.95;55.94
53715;BME280;39608;55.630;37.864;2023-02-15T12:39:17;100128.50;;;-0.93;55.69
53715;BME280;39608;55.630;37.864;2023-02-15T12:44:21;100148.41;;;-0.82;55.75
53715;BME280;39608;55.630;37.864;2023-02-15T12:49:26;100154.91;;;-1.05;54.94
53715;BME280;39608;55.630;37.864;2023-02-15T12:54:34;100132.53;;;-1.38;55.25
53715;BME280;39608;55.630;37.864;2023-02-15T12:59:36;100151.78;;;-1.29;56.06
53715;BME280;39608;55.630;37.864;2023-02-15T13:04:47;100146.28;;;-1.21;55.22
53715;BME280;39608;55.630;37.864;2023-02-15T13:09:52;100163.50;;;-1.10;55.66
53715;BME280;39608;55.630;37.864;2023-02-15T13:14:55;100161.03;;;-1.11;55.97
53715;BME280;39608;55.630;37.864;2023-02-15T13:20:04;100173.34;;;-1.10;55.38
53715;BME280;39608;55.630;37.864;2023-02-15T13:25:13;100178.25;;;-1.07;55.42
53715;BME280;39608;55.630;37.864;2023-02-15T13:30:24;100182.97;;;-1.02;55.82
53715;BME280;39608;55.630;37.864;2023-02-15T13:35:35;100186.44;;;-1.09;56.28
53715;BME280;39608;55.630;37.864;2023-02-15T13:40:45;100191.13;;;-1.11;56.79
53715;BME280;39608;55.630;37.864;2023-02-15T13:46:04;100199.13;;;-1.17;56.21
53715;BME280;39608;55.630;37.864;2023-02-15T13:51:15;100195.19;;;-1.28;56.33
53715;BME280;39608;55.630;37.864;2023-02-15T13:56:25;100208.28;;;-1.27;56.57
53715;BME280;39608;55.630;37.864;2023-02-15T14:01:38;100224.03;;;-1.32;56.44
53715;BME280;39608;55.630;37.864;2023-02-15T14:07:01;100209.28;;;-1.34;56.51
53715;BME280;39608;55.630;37.864;2023-02-15T14:12:23;100230.94;;;-1.44;55.69
53715;BME280;39608;55.630;37.864;2023-02-15T14:17:40;100227.88;;;-1.48;55.58
53715;BME280;39608;55.630;37.864;2023-02-15T14:22:52;100243.38;;;-1.51;55.37
53715;BME280;39608;55.630;37.864;2023-02-15T14:28:02;100230.84;;;-1.64;55.79
53715;BME280;39608;55.630;37.864;2023-02-15T14:33:29;100236.00;;;-1.56;55.39
53715;BME280;39608;55.630;37.864;2023-02-15T14:38:47;100253.16;;;-1.59;55.75
53715;BME280;39608;55.630;37.864;2023-02-15T14:44:00;100256.59;;;-1.72;55.86
53715;BME280;39608;55.630;37.864;2023-02-15T14:49:11;100256.75;;;-1.80;55.19
53715;BME280;39608;55.630;37.864;2023-02-15T14:59:54;100272.94;;;-1.75;55.53
53715;BME280;39608;55.630;37.864;2023-02-15T15:05:06;100277.81;;;-1.78;56.16
53715;BME280;39608;55.630;37.864;2023-02-15T15:15:46;100287.44;;;-1.77;56.61
53715;BME280;39608;55.630;37.864;2023-02-15T15:20:49;100290.84;;;-1.83;56.86
53715;BME280;39608;55.630;37.864;2023-02-15T15:25:52;100297.56;;;-1.87;56.31
53715;BME280;39608;55.630;37.864;2023-02-15T15:31:10;100288.16;;;-1.90;56.21
53715;BME280;39608;55.630;37.864;2023-02-15T15:42:01;100305.38;;;-1.86;56.72
53715;BME280;39608;55.630;37.864;2023-02-15T15:47:25;100318.56;;;-1.71;56.42
53715;BME280;39608;55.630;37.864;2023-02-15T15:52:33;100315.63;;;-1.83;56.59
53715;BME280;39608;55.630;37.864;2023-02-15T15:57:39;100314.50;;;-1.67;56.77
53715;BME280;39608;55.630;37.864;2023-02-15T16:02:50;100318.75;;;-1.73;56.51
53715;BME280;39608;55.630;37.864;2023-02-15T16:07:53;100323.25;;;-1.73;56.56
53715;BME280;39608;55.630;37.864;2023-02-15T16:12:55;100324.91;;;-1.72;56.84
53715;BME280;39608;55.630;37.864;2023-02-15T16:17:59;100331.84;;;-1.71;57.03
53715;BME280;39608;55.630;37.864;2023-02-15T16:23:16;100332.63;;;-1.77;56.69
53715;BME280;39608;55.630;37.864;2023-02-15T16:28:23;100334.03;;;-1.81;56.62
53715;BME280;39608;55.630;37.864;2023-02-15T16:33:35;100339.59;;;-1.76;56.67
53715;BME280;39608;55.630;37.864;2023-02-15T16:39:06;100333.25;;;-1.75;57.20
53715;BME280;39608;55.630;37.864;2023-02-15T16:44:14;100345.53;;;-1.74;57.24
53715;BME280;39608;55.630;37.864;2023-02-15T16:49:20;100334.91;;;-1.74;57.30
53715;BME280;39608;55.630;37.864;2023-02-15T16:54:25;100328.97;;;-1.76;56.88
53715;BME280;39608;55.630;37.864;2023-02-15T16:59:35;100353.78;;;-1.69;57.31
53715;BME280;39608;55.630;37.864;2023-02-15T17:04:40;100342.06;;;-1.75;57.39
53715;BME280;39608;55.630;37.864;2023-02-15T17:09:49;100342.50;;;-1.71;56.98
53715;BME280;39608;55.630;37.864;2023-02-15T17:14:54;100345.16;;;-1.71;56.94
53715;BME280;39608;55.630;37.864;2023-02-15T17:19:58;100353.50;;;-1.74;56.76
53715;BME280;39608;55.630;37.864;2023-02-15T17:25:02;100331.31;;;-1.88;56.84
53715;BME280;39608;55.630;37.864;2023-02-15T17:30:14;100347.75;;;-1.78;56.78
53715;BME280;39608;55.630;37.864;2023-02-15T17:35:21;100360.47;;;-1.73;56.96
53715;BME280;39608;55.630;37.864;2023-02-15T17:40:26;100354.50;;;-1.82;57.31
53715;BME280;39608;55.630;37.864;2023-02-15T17:45:33;100325.94;;;-1.95;57.31
53715;BME280;39608;55.630;37.864;2023-02-15T17:50:37;100359.63;;;-1.80;57.61
53715;BME280;39608;55.630;37.864;2023-02-15T17:55:39;100356.75;;;-1.79;57.48
53715;BME280;39608;55.630;37.864;2023-02-15T18:00:43;100364.69;;;-1.85;57.21
53715;BME280;39608;55.630;37.864;2023-02-15T18:06:05;100358.97;;;-1.82;57.47
53715;BME280;39608;55.630;37.864;2023-02-15T18:11:25;100359.16;;;-1.84;57.61
53715;BME280;39608;55.630;37.864;2023-02-15T18:16:39;100354.63;;;-1.90;57.69
53715;BME280;39608;55.630;37.864;2023-02-15T18:21:45;100369.75;;;-1.91;57.14
53715;BME280;39608;55.630;37.864;2023-02-15T18:26:47;100352.53;;;-1.95;57.77
53715;BME280;39608;55.630;37.864;2023-02-15T18:31:52;100344.19;;;-1.92;57.57
53715;BME280;39608;55.630;37.864;2023-02-15T18:36:57;100355.88;;;-1.86;57.70
53715;BME280;39608;55.630;37.864;2023-02-15T18:41:59;100354.03;;;-1.85;57.78
53715;BME280;39608;55.630;37.864;2023-02-15T18:47:01;100357.16;;;-1.82;58.21
53715;BME280;39608;55.630;37.864;2023-02-15T18:52:04;100358.56;;;-1.86;58.20
53715;BME280;39608;55.630;37.864;2023-02-15T18:57:12;100360.28;;;-1.72;58.13
53715;BME280;39608;55.630;37.864;2023-02-15T19:02:15;100351.88;;;-1.75;58.14
53715;BME280;39608;55.630;37.864;2023-02-15T19:07:21;100367.19;;;-1.77;57.72
53715;BME280;39608;55.630;37.864;2023-02-15T19:12:25;100358.56;;;-1.86;57.39
53715;BME280;39608;55.630;37.864;2023-02-15T19:17:27;100357.47;;;-1.92;57.90
53715;BME280;39608;55.630;37.864;2023-02-15T19:22:31;100361.97;;;-1.92;57.75
53715;BME280;39608;55.630;37.864;2023-02-15T19:27:34;100360.13;;;-1.92;58.20
53715;BME280;39608;55.630;37.864;2023-02-15T19:32:37;100345.94;;;-1.99;57.59
53715;BME280;39608;55.630;37.864;2023-02-15T19:37:43;100354.31;;;-2.02;58.27
53715;BME280;39608;55.630;37.864;2023-02-15T19:42:46;100355.91;;;-2.08;57.85
53715;BME280;39608;55.630;37.864;2023-02-15T19:47:50;100360.94;;;-2.13;58.17
53715;BME280;39608;55.630;37.864;2023-02-15T19:52:55;100359.75;;;-2.10;58.00
53715;BME280;39608;55.630;37.864;2023-02-15T19:57:59;100370.38;;;-2.10;58.03
53715;BME280;39608;55.630;37.864;2023-02-15T20:03:01;100359.38;;;-2.07;58.42
53715;BME280;39608;55.630;37.864;2023-02-15T20:08:06;100357.16;;;-2.03;57.99
53715;BME280;39608;55.630;37.864;2023-02-15T20:13:12;100366.78;;;-2.02;58.75
53715;BME280;39608;55.630;37.864;2023-02-15T20:18:15;100363.06;;;-2.08;58.51
53715;BME280;39608;55.630;37.864;2023-02-15T20:23:21;100359.38;;;-2.07;58.77
53715;BME280;39608;55.630;37.864;2023-02-15T20:28:26;100359.56;;;-2.09;58.21
53715;BME280;39608;55.630;37.864;2023-02-15T20:33:29;100357.69;;;-2.15;58.20
53715;BME280;39608;55.630;37.864;2023-02-15T20:38:32;100364.25;;;-2.11;58.82
53715;BME280;39608;55.630;37.864;2023-02-15T20:43:34;100354.19;;;-2.15;58.30
53715;BME280;39608;55.630;37.864;2023-02-15T20:48:36;100357.06;;;-2.17;58.21
53715;BME280;39608;55.630;37.864;2023-02-15T20:53:40;100366.22;;;-2.19;58.61
53715;BME280;39608;55.630;37.864;2023-02-15T20:58:42;100351.66;;;-2.24;58.82
53715;BME280;39608;55.630;37.864;2023-02-15T21:03:44;100357.38;;;-2.27;59.04
53715;BME280;39608;55.630;37.864;2023-02-15T21:08:48;100356.97;;;-2.24;58.79
53715;BME280;39608;55.630;37.864;2023-02-15T21:13:50;100359.19;;;-2.27;58.79
53715;BME280;39608;55.630;37.864;2023-02-15T21:18:52;100354.38;;;-2.38;58.86
53715;BME280;39608;55.630;37.864;2023-02-15T21:23:55;100349.88;;;-2.38;59.30
53715;BME280;39608;55.630;37.864;2023-02-15T21:28:57;100354.56;;;-2.40;59.17
53715;BME280;39608;55.630;37.864;2023-02-15T21:33:59;100349.00;;;-2.45;58.87
53715;BME280;39608;55.630;37.864;2023-02-15T21:39:03;100362.81;;;-2.35;59.23
53715;BME280;39608;55.630;37.864;2023-02-15T21:44:14;100360.38;;;-2.30;59.14
53715;BME280;39608;55.630;37.864;2023-02-15T21:49:34;100358.69;;;-2.37;58.83
53715;BME280;39608;55.630;37.864;2023-02-15T21:54:37;100357.22;;;-2.40;58.70
53715;BME280;39608;55.630;37.864;2023-02-15T21:59:40;100354.50;;;-2.47;58.75
53715;BME280;39608;55.630;37.864;2023-02-15T22:04:42;100358.00;;;-2.46;58.74
53715;BME280;39608;55.630;37.864;2023-02-15T22:09:46;100360.25;;;-2.43;59.13
53715;BME280;39608;55.630;37.864;2023-02-15T22:14:49;100363.09;;;-2.45;58.90
53715;BME280;39608;55.630;37.864;2023-02-15T22:19:53;100354.88;;;-2.50;59.07
53715;BME280;39608;55.630;37.864;2023-02-15T22:24:57;100368.34;;;-2.51;58.72
53715;BME280;39608;55.630;37.864;2023-02-15T22:29:59;100363.03;;;-2.51;58.58
53715;BME280;39608;55.630;37.864;2023-02-15T22:35:01;100359.81;;;-2.47;59.07
53715;BME280;39608;55.630;37.864;2023-02-15T22:40:07;100366.19;;;-2.41;58.87
53715;BME280;39608;55.630;37.864;2023-02-15T22:45:15;100360.88;;;-2.41;59.04
53715;BME280;39608;55.630;37.864;2023-02-15T22:50:19;100355.06;;;-2.51;59.04
53715;BME280;39608;55.630;37.864;2023-02-15T22:55:24;100359.63;;;-2.45;58.98
53715;BME280;39608;55.630;37.864;2023-02-15T23:00:31;100365.56;;;-2.43;59.31
53715;BME280;39608;55.630;37.864;2023-02-15T23:05:36;100361.00;;;-2.49;59.32
53715;BME280;39608;55.630;37.864;2023-02-15T23:10:40;100357.41;;;-2.42;59.11
53715;BME280;39608;55.630;37.864;2023-02-15T23:15:45;100352.47;;;-2.45;59.11
53715;BME280;39608;55.630;37.864;2023-02-15T23:20:50;100337.75;;;-2.47;59.38
53715;BME280;39608;55.630;37.864;2023-02-15T23:25:54;100347.19;;;-2.45;59.23
53715;BME280;39608;55.630;37.864;2023-02-15T23:30:57;100338.13;;;-2.50;59.43
53715;BME280;39608;55.630;37.864;2023-02-15T23:35:59;100341.31;;;-2.55;58.80
53715;BME280;39608;55.630;37.864;2023-02-15T23:41:03;100338.47;;;-2.53;59.15
53715;BME280;39608;55.630;37.864;2023-02-15T23:46:26;100328.25;;;-2.56;59.40
53715;BME280;39608;55.630;37.864;2023-02-15T23:51:30;100339.13;;;-2.51;58.90
53715;BME280;39608;55.630;37.864;2023-02-15T23:56:34;100337.84;;;-2.55;58.75
